Quincy Regional Baldwin Field Quincy US
ICAO: KUIN
IATA: UIN
Category: Medium
Scheduled Services: Yes

Elevation: 768 ft
TransAlt. 18000 ft.

Airport Communications:
ASOS:118.325
KANSAS CITY CNTR:135.525
ST LOUIS RDO:122.5
CTAF/UNICOM:123

KUIN Zoom In..

If you have problems with the map follow the link
https://www.worldairports.se/pages/airport.php?
ICAO=KUIN

Runways:

(A) RW 04 length 7098 ft width 150 ft
ILS 110.10 / hdg 38

(B) RW 13 length 5397 ft width 150 ft
---- / hdg 133

(C) RW 18 length 5400 ft width 150 ft
---- / hdg 177

(D) RW 22 length 7098 ft width 150 ft
---- / hdg 218

(E) RW 31 length 5397 ft width 150 ft
---- / hdg 313

(F) RW 36 length 5400 ft width 150 ft
---- / hdg 357

Location; KUIN
Day. 14 / Time. 17.39 Zulu
* Altimeter: 29.87
* Temperature: -01° c. -30.2°f.
* Wind from: 300° Speed 12 kn.
Dewpoint: -04° c.
Visibility: 8 Statute Miles.
Clouds: Overcast 1500 ft.

KUIN 141739Z AUTO 30012KT 8SM OVC015 M01/M04 A2987 RMK AO2 T10111039


Wind From 300°
Speed 12 kn.

 
 
jpsmedia worldairports.se 2019   terms of use